sensor_id;sensor_type;location;lat;lon;timestamp;temperature;humidity
27619;DHT22;15039;50.830;4.730;2022-09-30T00:01:44;8.20;99.90
27619;DHT22;15039;50.830;4.730;2022-09-30T00:04:16;8.10;99.90
27619;DHT22;15039;50.830;4.730;2022-09-30T00:06:45;8.20;99.90
27619;DHT22;15039;50.830;4.730;2022-09-30T00:09:11;8.20;99.90
27619;DHT22;15039;50.830;4.730;2022-09-30T00:11:38;8.20;99.90
27619;DHT22;15039;50.830;4.730;2022-09-30T00:14:05;8.10;99.90
27619;DHT22;15039;50.830;4.730;2022-09-30T00:16:34;8.20;99.90
27619;DHT22;15039;50.830;4.730;2022-09-30T00:19:00;8.20;99.90
27619;DHT22;15039;50.830;4.730;2022-09-30T00:21:27;8.20;99.90
27619;DHT22;15039;50.830;4.730;2022-09-30T00:23:53;8.20;99.90
27619;DHT22;15039;50.830;4.730;2022-09-30T00:26:20;8.20;99.90
27619;DHT22;15039;50.830;4.730;2022-09-30T00:28:55;8.20;99.90
27619;DHT22;15039;50.830;4.730;2022-09-30T00:31:25;8.20;99.90
27619;DHT22;15039;50.830;4.730;2022-09-30T00:33:52;8.20;99.90
27619;DHT22;15039;50.830;4.730;2022-09-30T00:36:50;8.10;99.90
27619;DHT22;15039;50.830;4.730;2022-09-30T00:39:22;8.00;99.90
27619;DHT22;15039;50.830;4.730;2022-09-30T00:41:52;8.00;99.90
27619;DHT22;15039;50.830;4.730;2022-09-30T00:48:16;8.10;99.90
27619;DHT22;15039;50.830;4.730;2022-09-30T00:58:26;8.30;99.90
27619;DHT22;15039;50.830;4.730;2022-09-30T01:00:54;8.30;99.90
27619;DHT22;15039;50.830;4.730;2022-09-30T01:03:21;8.40;99.90
27619;DHT22;15039;50.830;4.730;2022-09-30T01:05:49;8.50;99.90
27619;DHT22;15039;50.830;4.730;2022-09-30T01:08:15;8.60;99.90
27619;DHT22;15039;50.830;4.730;2022-09-30T01:10:43;8.50;99.90
27619;DHT22;15039;50.830;4.730;2022-09-30T01:13:09;8.30;99.90
27619;DHT22;15039;50.830;4.730;2022-09-30T01:18:45;8.30;99.90
27619;DHT22;15039;50.830;4.730;2022-09-30T01:30:02;8.40;99.90
27619;DHT22;15039;50.830;4.730;2022-09-30T01:35:24;8.30;99.90
27619;DHT22;15039;50.830;4.730;2022-09-30T01:38:14;8.20;99.90
27619;DHT22;15039;50.830;4.730;2022-09-30T01:41:08;8.30;99.90
27619;DHT22;15039;50.830;4.730;2022-09-30T01:47:06;8.30;99.90
27619;DHT22;15039;50.830;4.730;2022-09-30T01:49:40;8.20;99.90
27619;DHT22;15039;50.830;4.730;2022-09-30T01:52:19;8.20;99.90
27619;DHT22;15039;50.830;4.730;2022-09-30T01:55:05;8.30;99.90
27619;DHT22;15039;50.830;4.730;2022-09-30T01:57:59;8.30;99.90
27619;DHT22;15039;50.830;4.730;2022-09-30T02:00:26;8.20;99.90
27619;DHT22;15039;50.830;4.730;2022-09-30T02:03:03;8.20;99.90
27619;DHT22;15039;50.830;4.730;2022-09-30T02:08:53;8.20;99.90
27619;DHT22;15039;50.830;4.730;2022-09-30T02:11:37;8.10;99.90
27619;DHT22;15039;50.830;4.730;2022-09-30T02:16:57;8.20;99.90
27619;DHT22;15039;50.830;4.730;2022-09-30T02:19:51;8.20;99.90
27619;DHT22;15039;50.830;4.730;2022-09-30T02:22:25;8.00;99.90
27619;DHT22;15039;50.830;4.730;2022-09-30T02:24:59;7.90;99.90
27619;DHT22;15039;50.830;4.730;2022-09-30T02:27:48;8.00;99.90
27619;DHT22;15039;50.830;4.730;2022-09-30T02:30:16;8.10;99.90
27619;DHT22;15039;50.830;4.730;2022-09-30T02:35:20;8.20;99.90
27619;DHT22;15039;50.830;4.730;2022-09-30T02:37:51;8.10;99.90
27619;DHT22;15039;50.830;4.730;2022-09-30T02:40:32;8.00;99.90
27619;DHT22;15039;50.830;4.730;2022-09-30T02:43:02;7.90;99.90
27619;DHT22;15039;50.830;4.730;2022-09-30T02:45:34;7.90;99.90
27619;DHT22;15039;50.830;4.730;2022-09-30T02:58:41;7.90;99.90
27619;DHT22;15039;50.830;4.730;2022-09-30T03:01:12;7.90;99.90
27619;DHT22;15039;50.830;4.730;2022-09-30T03:03:40;7.90;99.90
27619;DHT22;15039;50.830;4.730;2022-09-30T03:06:07;7.90;99.90
27619;DHT22;15039;50.830;4.730;2022-09-30T03:08:34;7.80;99.90
27619;DHT22;15039;50.830;4.730;2022-09-30T03:11:00;8.00;99.90
27619;DHT22;15039;50.830;4.730;2022-09-30T03:24:40;8.10;99.90
27619;DHT22;15039;50.830;4.730;2022-09-30T03:27:21;8.10;99.90
27619;DHT22;15039;50.830;4.730;2022-09-30T03:35:19;7.70;99.90
27619;DHT22;15039;50.830;4.730;2022-09-30T03:41:02;7.80;99.90
27619;DHT22;15039;50.830;4.730;2022-09-30T03:48:59;7.90;99.90
27619;DHT22;15039;50.830;4.730;2022-09-30T03:51:26;8.00;99.90
27619;DHT22;15039;50.830;4.730;2022-09-30T03:53:54;8.10;99.90
27619;DHT22;15039;50.830;4.730;2022-09-30T03:56:26;8.10;99.90
27619;DHT22;15039;50.830;4.730;2022-09-30T03:58:52;8.00;99.90
27619;DHT22;15039;50.830;4.730;2022-09-30T04:01:19;8.10;99.90
27619;DHT22;15039;50.830;4.730;2022-09-30T04:03:49;7.90;99.90
27619;DHT22;15039;50.830;4.730;2022-09-30T04:06:17;7.80;99.90
27619;DHT22;15039;50.830;4.730;2022-09-30T04:08:44;7.80;99.90
27619;DHT22;15039;50.830;4.730;2022-09-30T04:11:10;7.90;99.90
27619;DHT22;15039;50.830;4.730;2022-09-30T04:13:37;7.90;99.90
27619;DHT22;15039;50.830;4.730;2022-09-30T04:16:04;7.90;99.90
27619;DHT22;15039;50.830;4.730;2022-09-30T04:18:30;8.00;99.90
27619;DHT22;15039;50.830;4.730;2022-09-30T04:20:57;7.90;99.90
27619;DHT22;15039;50.830;4.730;2022-09-30T04:23:24;7.80;99.90
27619;DHT22;15039;50.830;4.730;2022-09-30T04:25:54;7.90;99.90
27619;DHT22;15039;50.830;4.730;2022-09-30T04:28:21;7.90;99.90
27619;DHT22;15039;50.830;4.730;2022-09-30T04:30:49;8.00;99.90
27619;DHT22;15039;50.830;4.730;2022-09-30T04:33:14;7.90;99.90
27619;DHT22;15039;50.830;4.730;2022-09-30T04:35:40;7.90;99.90
27619;DHT22;15039;50.830;4.730;2022-09-30T04:38:06;8.00;99.90
27619;DHT22;15039;50.830;4.730;2022-09-30T04:40:36;8.00;99.90
27619;DHT22;15039;50.830;4.730;2022-09-30T04:43:04;8.00;99.90
27619;DHT22;15039;50.830;4.730;2022-09-30T04:45:31;8.00;99.90
27619;DHT22;15039;50.830;4.730;2022-09-30T04:47:58;8.00;99.90
27619;DHT22;15039;50.830;4.730;2022-09-30T04:50:23;8.00;99.90
27619;DHT22;15039;50.830;4.730;2022-09-30T04:52:49;8.00;99.90
27619;DHT22;15039;50.830;4.730;2022-09-30T04:55:15;8.00;99.90
27619;DHT22;15039;50.830;4.730;2022-09-30T04:57:43;7.90;99.90
27619;DHT22;15039;50.830;4.730;2022-09-30T05:00:10;8.00;99.90
27619;DHT22;15039;50.830;4.730;2022-09-30T05:02:36;8.10;99.90
27619;DHT22;15039;50.830;4.730;2022-09-30T05:05:04;8.00;99.90
27619;DHT22;15039;50.830;4.730;2022-09-30T05:07:30;7.90;99.90
27619;DHT22;15039;50.830;4.730;2022-09-30T05:09:57;7.90;99.90
27619;DHT22;15039;50.830;4.730;2022-09-30T05:12:22;7.80;99.90
27619;DHT22;15039;50.830;4.730;2022-09-30T05:14:48;7.80;99.90
27619;DHT22;15039;50.830;4.730;2022-09-30T05:17:13;7.70;99.90
27619;DHT22;15039;50.830;4.730;2022-09-30T05:19:39;7.80;99.90
27619;DHT22;15039;50.830;4.730;2022-09-30T05:22:05;7.80;99.90
27619;DHT22;15039;50.830;4.730;2022-09-30T05:24:32;7.80;99.90
27619;DHT22;15039;50.830;4.730;2022-09-30T05:26:58;7.80;99.90
27619;DHT22;15039;50.830;4.730;2022-09-30T05:29:24;7.70;99.90
27619;DHT22;15039;50.830;4.730;2022-09-30T05:31:50;7.70;99.90
27619;DHT22;15039;50.830;4.730;2022-09-30T05:34:15;7.90;99.90
27619;DHT22;15039;50.830;4.730;2022-09-30T05:36:42;7.90;99.90
27619;DHT22;15039;50.830;4.730;2022-09-30T05:39:09;7.90;99.90
27619;DHT22;15039;50.830;4.730;2022-09-30T05:41:35;7.90;99.90
27619;DHT22;15039;50.830;4.730;2022-09-30T05:44:01;7.90;99.90
27619;DHT22;15039;50.830;4.730;2022-09-30T05:46:27;7.90;99.90
27619;DHT22;15039;50.830;4.730;2022-09-30T05:48:54;8.00;99.90
27619;DHT22;15039;50.830;4.730;2022-09-30T05:51:20;8.10;99.90
27619;DHT22;15039;50.830;4.730;2022-09-30T05:53:45;8.10;99.90
27619;DHT22;15039;50.830;4.730;2022-09-30T05:56:12;8.10;99.90
27619;DHT22;15039;50.830;4.730;2022-09-30T05:58:38;8.10;99.90
27619;DHT22;15039;50.830;4.730;2022-09-30T06:01:09;8.10;99.90
27619;DHT22;15039;50.830;4.730;2022-09-30T06:03:35;8.00;99.90
27619;DHT22;15039;50.830;4.730;2022-09-30T06:06:03;8.00;99.90
27619;DHT22;15039;50.830;4.730;2022-09-30T06:08:30;8.10;99.90
27619;DHT22;15039;50.830;4.730;2022-09-30T06:10:57;8.10;99.90
27619;DHT22;15039;50.830;4.730;2022-09-30T06:13:27;8.10;99.90
27619;DHT22;15039;50.830;4.730;2022-09-30T06:15:58;8.20;99.90
27619;DHT22;15039;50.830;4.730;2022-09-30T06:18:25;8.20;99.90
27619;DHT22;15039;50.830;4.730;2022-09-30T06:20:52;8.20;99.90
27619;DHT22;15039;50.830;4.730;2022-09-30T06:23:20;8.30;99.90
27619;DHT22;15039;50.830;4.730;2022-09-30T06:25:49;8.30;99.90
27619;DHT22;15039;50.830;4.730;2022-09-30T06:28:15;8.30;99.90
27619;DHT22;15039;50.830;4.730;2022-09-30T06:30:43;8.30;99.90
27619;DHT22;15039;50.830;4.730;2022-09-30T06:33:08;8.40;99.90
27619;DHT22;15039;50.830;4.730;2022-09-30T06:35:34;8.30;99.90
27619;DHT22;15039;50.830;4.730;2022-09-30T06:38:00;8.30;99.90
27619;DHT22;15039;50.830;4.730;2022-09-30T06:40:25;8.40;99.90
27619;DHT22;15039;50.830;4.730;2022-09-30T06:42:57;8.50;99.90
27619;DHT22;15039;50.830;4.730;2022-09-30T06:45:24;8.60;99.90
27619;DHT22;15039;50.830;4.730;2022-09-30T06:47:49;8.50;99.90
27619;DHT22;15039;50.830;4.730;2022-09-30T06:50:16;8.40;99.90
27619;DHT22;15039;50.830;4.730;2022-09-30T06:52:42;8.40;99.90
27619;DHT22;15039;50.830;4.730;2022-09-30T06:55:08;8.50;99.90
27619;DHT22;15039;50.830;4.730;2022-09-30T06:57:33;8.50;99.90
27619;DHT22;15039;50.830;4.730;2022-09-30T07:00:00;8.60;99.90
27619;DHT22;15039;50.830;4.730;2022-09-30T07:02:26;8.70;99.90
27619;DHT22;15039;50.830;4.730;2022-09-30T07:04:53;8.70;99.90
27619;DHT22;15039;50.830;4.730;2022-09-30T07:07:19;8.80;99.90
27619;DHT22;15039;50.830;4.730;2022-09-30T07:09:46;8.90;99.90
27619;DHT22;15039;50.830;4.730;2022-09-30T07:12:12;8.90;99.90
27619;DHT22;15039;50.830;4.730;2022-09-30T07:14:37;9.00;99.90
27619;DHT22;15039;50.830;4.730;2022-09-30T07:17:04;9.10;99.90
27619;DHT22;15039;50.830;4.730;2022-09-30T07:19:30;9.10;99.90
27619;DHT22;15039;50.830;4.730;2022-09-30T07:21:58;9.20;99.90
27619;DHT22;15039;50.830;4.730;2022-09-30T07:24:42;9.20;99.90
27619;DHT22;15039;50.830;4.730;2022-09-30T07:27:08;9.20;99.90
27619;DHT22;15039;50.830;4.730;2022-09-30T07:29:33;9.30;99.90
27619;DHT22;15039;50.830;4.730;2022-09-30T07:31:59;9.40;99.90
27619;DHT22;15039;50.830;4.730;2022-09-30T07:34:25;9.40;99.90
27619;DHT22;15039;50.830;4.730;2022-09-30T07:36:51;9.50;99.90
27619;DHT22;15039;50.830;4.730;2022-09-30T07:39:17;9.60;99.90
27619;DHT22;15039;50.830;4.730;2022-09-30T07:41:43;9.70;99.90
27619;DHT22;15039;50.830;4.730;2022-09-30T07:44:11;9.80;99.90
27619;DHT22;15039;50.830;4.730;2022-09-30T07:46:38;9.90;99.90
27619;DHT22;15039;50.830;4.730;2022-09-30T07:49:07;10.00;99.90
27619;DHT22;15039;50.830;4.730;2022-09-30T07:51:36;10.00;99.90
27619;DHT22;15039;50.830;4.730;2022-09-30T07:54:06;10.10;99.90
27619;DHT22;15039;50.830;4.730;2022-09-30T07:56:33;10.10;99.90
27619;DHT22;15039;50.830;4.730;2022-09-30T07:59:00;10.20;99.90
27619;DHT22;15039;50.830;4.730;2022-09-30T08:01:30;10.30;99.90
27619;DHT22;15039;50.830;4.730;2022-09-30T08:03:59;10.30;99.90
27619;DHT22;15039;50.830;4.730;2022-09-30T08:06:26;10.40;99.90
27619;DHT22;15039;50.830;4.730;2022-09-30T08:08:54;10.50;99.90
27619;DHT22;15039;50.830;4.730;2022-09-30T08:11:20;10.60;99.90
27619;DHT22;15039;50.830;4.730;2022-09-30T08:13:50;10.70;99.90
27619;DHT22;15039;50.830;4.730;2022-09-30T08:16:17;10.70;99.90
27619;DHT22;15039;50.830;4.730;2022-09-30T08:18:43;10.80;99.90
27619;DHT22;15039;50.830;4.730;2022-09-30T08:21:08;10.80;99.90
27619;DHT22;15039;50.830;4.730;2022-09-30T08:23:34;10.90;99.90
27619;DHT22;15039;50.830;4.730;2022-09-30T08:26:07;11.10;99.90
27619;DHT22;15039;50.830;4.730;2022-09-30T08:28:35;11.10;99.90
27619;DHT22;15039;50.830;4.730;2022-09-30T08:31:09;11.10;99.90
27619;DHT22;15039;50.830;4.730;2022-09-30T08:33:35;11.30;99.90
27619;DHT22;15039;50.830;4.730;2022-09-30T08:36:09;11.40;99.90
27619;DHT22;15039;50.830;4.730;2022-09-30T08:38:35;11.40;99.90
27619;DHT22;15039;50.830;4.730;2022-09-30T08:41:21;11.50;99.90
27619;DHT22;15039;50.830;4.730;2022-09-30T08:52:20;11.70;99.90
27619;DHT22;15039;50.830;4.730;2022-09-30T08:54:50;11.80;99.90
27619;DHT22;15039;50.830;4.730;2022-09-30T08:57:16;11.90;99.90
27619;DHT22;15039;50.830;4.730;2022-09-30T09:00:03;12.00;99.90
27619;DHT22;15039;50.830;4.730;2022-09-30T09:02:54;12.10;99.90
27619;DHT22;15039;50.830;4.730;2022-09-30T09:11:00;12.30;99.90
27619;DHT22;15039;50.830;4.730;2022-09-30T09:18:45;12.50;99.90
27619;DHT22;15039;50.830;4.730;2022-09-30T09:21:49;12.70;99.90
27619;DHT22;15039;50.830;4.730;2022-09-30T09:24:36;12.70;99.90
27619;DHT22;15039;50.830;4.730;2022-09-30T09:32:33;13.00;99.90
27619;DHT22;15039;50.830;4.730;2022-09-30T09:35:03;13.10;99.90
27619;DHT22;15039;50.830;4.730;2022-09-30T09:43:04;13.30;99.90
27619;DHT22;15039;50.830;4.730;2022-09-30T09:45:45;13.50;99.90
27619;DHT22;15039;50.830;4.730;2022-09-30T09:48:13;13.50;99.90
27619;DHT22;15039;50.830;4.730;2022-09-30T09:51:02;13.60;99.90
27619;DHT22;15039;50.830;4.730;2022-09-30T09:56:17;13.70;99.90
27619;DHT22;15039;50.830;4.730;2022-09-30T09:59:03;13.80;99.90
27619;DHT22;15039;50.830;4.730;2022-09-30T10:01:34;13.90;99.90
27619;DHT22;15039;50.830;4.730;2022-09-30T10:06:44;14.00;99.90
27619;DHT22;15039;50.830;4.730;2022-09-30T10:09:28;14.10;99.90
27619;DHT22;15039;50.830;4.730;2022-09-30T10:14:38;14.40;99.90
27619;DHT22;15039;50.830;4.730;2022-09-30T10:17:39;14.50;99.90
27619;DHT22;15039;50.830;4.730;2022-09-30T10:20:29;14.50;99.90
27619;DHT22;15039;50.830;4.730;2022-09-30T10:23:00;14.60;99.90
27619;DHT22;15039;50.830;4.730;2022-09-30T10:25:27;14.80;99.90
27619;DHT22;15039;50.830;4.730;2022-09-30T10:28:01;14.80;99.90
27619;DHT22;15039;50.830;4.730;2022-09-30T10:33:00;14.90;99.90
27619;DHT22;15039;50.830;4.730;2022-09-30T10:35:29;15.00;99.90
27619;DHT22;15039;50.830;4.730;2022-09-30T10:37:58;15.00;99.90
27619;DHT22;15039;50.830;4.730;2022-09-30T10:40:27;15.00;99.90
27619;DHT22;15039;50.830;4.730;2022-09-30T10:42:54;15.00;99.90
27619;DHT22;15039;50.830;4.730;2022-09-30T10:45:28;15.10;99.90
27619;DHT22;15039;50.830;4.730;2022-09-30T10:47:56;15.20;99.90
27619;DHT22;15039;50.830;4.730;2022-09-30T10:50:24;15.30;99.90
27619;DHT22;15039;50.830;4.730;2022-09-30T10:55:26;15.50;99.90
27619;DHT22;15039;50.830;4.730;2022-09-30T11:01:21;16.00;99.90
27619;DHT22;15039;50.830;4.730;2022-09-30T11:06:39;16.50;99.90
27619;DHT22;15039;50.830;4.730;2022-09-30T11:09:46;16.60;99.90
27619;DHT22;15039;50.830;4.730;2022-09-30T11:12:16;16.60;99.90
27619;DHT22;15039;50.830;4.730;2022-09-30T11:20:16;17.00;99.90
27619;DHT22;15039;50.830;4.730;2022-09-30T11:23:14;17.10;99.90
27619;DHT22;15039;50.830;4.730;2022-09-30T11:31:27;17.20;99.90
27619;DHT22;15039;50.830;4.730;2022-09-30T11:45:17;16.90;99.90
27619;DHT22;15039;50.830;4.730;2022-09-30T11:50:49;17.20;99.90
27619;DHT22;15039;50.830;4.730;2022-09-30T11:56:15;17.10;99.90
27619;DHT22;15039;50.830;4.730;2022-09-30T11:58:46;17.20;99.90
27619;DHT22;15039;50.830;4.730;2022-09-30T12:04:18;17.30;99.90
27619;DHT22;15039;50.830;4.730;2022-09-30T12:06:54;17.30;99.90
27619;DHT22;15039;50.830;4.730;2022-09-30T12:09:30;17.30;99.90
27619;DHT22;15039;50.830;4.730;2022-09-30T12:12:11;17.50;99.90
27619;DHT22;15039;50.830;4.730;2022-09-30T12:14:48;17.60;99.90
27619;DHT22;15039;50.830;4.730;2022-09-30T12:19:54;17.90;99.90
27619;DHT22;15039;50.830;4.730;2022-09-30T12:22:29;17.90;99.90
27619;DHT22;15039;50.830;4.730;2022-09-30T12:24:55;17.80;99.90
27619;DHT22;15039;50.830;4.730;2022-09-30T12:27:34;17.90;99.90
27619;DHT22;15039;50.830;4.730;2022-09-30T12:30:16;18.00;99.90
27619;DHT22;15039;50.830;4.730;2022-09-30T12:33:12;18.00;99.90
27619;DHT22;15039;50.830;4.730;2022-09-30T12:49:37;18.30;99.90
27619;DHT22;15039;50.830;4.730;2022-09-30T12:52:12;18.20;99.90
27619;DHT22;15039;50.830;4.730;2022-09-30T12:54:43;18.20;99.90
27619;DHT22;15039;50.830;4.730;2022-09-30T12:57:18;18.10;99.90
27619;DHT22;15039;50.830;4.730;2022-09-30T13:00:33;17.90;99.90
27619;DHT22;15039;50.830;4.730;2022-09-30T13:02:43;17.90;99.90
27619;DHT22;15039;50.830;4.730;2022-09-30T13:13:22;18.10;99.90
27619;DHT22;15039;50.830;4.730;2022-09-30T13:15:54;18.00;99.90
27619;DHT22;15039;50.830;4.730;2022-09-30T13:23:47;18.10;99.90
27619;DHT22;15039;50.830;4.730;2022-09-30T13:28:50;18.10;99.90
27619;DHT22;15039;50.830;4.730;2022-09-30T13:31:18;18.20;99.90
27619;DHT22;15039;50.830;4.730;2022-09-30T13:33:46;18.20;99.90
27619;DHT22;15039;50.830;4.730;2022-09-30T13:39:28;18.10;99.90
27619;DHT22;15039;50.830;4.730;2022-09-30T13:42:04;18.10;99.90
27619;DHT22;15039;50.830;4.730;2022-09-30T13:44:45;18.30;99.90
27619;DHT22;15039;50.830;4.730;2022-09-30T13:47:24;18.40;99.90
27619;DHT22;15039;50.830;4.730;2022-09-30T13:52:25;18.60;99.90
27619;DHT22;15039;50.830;4.730;2022-09-30T13:54:54;18.60;99.90
27619;DHT22;15039;50.830;4.730;2022-09-30T13:57:31;18.50;99.90
27619;DHT22;15039;50.830;4.730;2022-09-30T14:00:06;18.30;99.90
27619;DHT22;15039;50.830;4.730;2022-09-30T14:08:33;18.10;99.90
27619;DHT22;15039;50.830;4.730;2022-09-30T14:19:21;18.00;99.90
27619;DHT22;15039;50.830;4.730;2022-09-30T14:21:56;18.00;99.90
27619;DHT22;15039;50.830;4.730;2022-09-30T14:24:31;17.80;99.90
27619;DHT22;15039;50.830;4.730;2022-09-30T14:35:17;18.10;99.90
27619;DHT22;15039;50.830;4.730;2022-09-30T14:37:51;18.00;99.90
27619;DHT22;15039;50.830;4.730;2022-09-30T14:40:30;18.00;99.90
27619;DHT22;15039;50.830;4.730;2022-09-30T14:42:58;18.00;99.90
27619;DHT22;15039;50.830;4.730;2022-09-30T14:45:32;18.00;99.90
27619;DHT22;15039;50.830;4.730;2022-09-30T14:48:09;18.00;99.90
27619;DHT22;15039;50.830;4.730;2022-09-30T14:50:59;18.00;99.90
27619;DHT22;15039;50.830;4.730;2022-09-30T14:53:33;17.90;99.90
27619;DHT22;15039;50.830;4.730;2022-09-30T14:56:00;17.90;99.90
27619;DHT22;15039;50.830;4.730;2022-09-30T14:58:39;17.80;99.90
27619;DHT22;15039;50.830;4.730;2022-09-30T15:03:38;17.70;99.90
27619;DHT22;15039;50.830;4.730;2022-09-30T15:06:18;17.70;99.90
27619;DHT22;15039;50.830;4.730;2022-09-30T15:08:44;17.70;99.90
27619;DHT22;15039;50.830;4.730;2022-09-30T15:11:20;17.70;99.90
27619;DHT22;15039;50.830;4.730;2022-09-30T15:13:47;17.60;99.90
27619;DHT22;15039;50.830;4.730;2022-09-30T15:16:24;17.60;99.90
27619;DHT22;15039;50.830;4.730;2022-09-30T15:18:51;17.50;99.90
27619;DHT22;15039;50.830;4.730;2022-09-30T15:21:19;17.60;99.90
27619;DHT22;15039;50.830;4.730;2022-09-30T15:23:48;17.50;99.90
27619;DHT22;15039;50.830;4.730;2022-09-30T15:26:20;17.50;99.90
27619;DHT22;15039;50.830;4.730;2022-09-30T15:28:46;17.50;99.90
27619;DHT22;15039;50.830;4.730;2022-09-30T15:31:21;17.60;99.90
27619;DHT22;15039;50.830;4.730;2022-09-30T15:33:48;17.60;99.90
27619;DHT22;15039;50.830;4.730;2022-09-30T15:36:15;17.70;99.90
27619;DHT22;15039;50.830;4.730;2022-09-30T15:38:47;17.70;99.90
27619;DHT22;15039;50.830;4.730;2022-09-30T15:41:14;17.70;99.90
27619;DHT22;15039;50.830;4.730;2022-09-30T15:43:41;17.50;99.90
27619;DHT22;15039;50.830;4.730;2022-09-30T15:46:28;17.40;99.90
27619;DHT22;15039;50.830;4.730;2022-09-30T15:48:59;17.20;99.90
27619;DHT22;15039;50.830;4.730;2022-09-30T15:51:39;17.10;99.90
27619;DHT22;15039;50.830;4.730;2022-09-30T15:54:29;17.00;99.90
27619;DHT22;15039;50.830;4.730;2022-09-30T15:57:00;16.90;99.90
27619;DHT22;15039;50.830;4.730;2022-09-30T15:59:56;16.90;99.90
27619;DHT22;15039;50.830;4.730;2022-09-30T16:02:22;16.80;99.90
27619;DHT22;15039;50.830;4.730;2022-09-30T16:04:52;16.80;99.90
27619;DHT22;15039;50.830;4.730;2022-09-30T16:07:20;16.80;99.90
27619;DHT22;15039;50.830;4.730;2022-09-30T16:09:53;16.80;99.90
27619;DHT22;15039;50.830;4.730;2022-09-30T16:12:22;16.70;99.90
27619;DHT22;15039;50.830;4.730;2022-09-30T16:15:19;16.70;99.90
27619;DHT22;15039;50.830;4.730;2022-09-30T16:17:46;16.50;99.90
27619;DHT22;15039;50.830;4.730;2022-09-30T16:25:18;16.30;99.90
27619;DHT22;15039;50.830;4.730;2022-09-30T16:27:44;16.20;99.90
27619;DHT22;15039;50.830;4.730;2022-09-30T16:30:17;16.00;99.90
27619;DHT22;15039;50.830;4.730;2022-09-30T16:32:48;16.00;99.90
27619;DHT22;15039;50.830;4.730;2022-09-30T16:35:20;16.00;99.90
27619;DHT22;15039;50.830;4.730;2022-09-30T16:37:47;16.00;99.90
27619;DHT22;15039;50.830;4.730;2022-09-30T16:40:22;16.00;99.90
27619;DHT22;15039;50.830;4.730;2022-09-30T16:42:50;15.90;99.90
27619;DHT22;15039;50.830;4.730;2022-09-30T16:45:19;15.90;99.90
27619;DHT22;15039;50.830;4.730;2022-09-30T16:47:45;15.80;99.90
27619;DHT22;15039;50.830;4.730;2022-09-30T16:52:46;15.80;99.90
27619;DHT22;15039;50.830;4.730;2022-09-30T16:55:12;15.70;99.90
27619;DHT22;15039;50.830;4.730;2022-09-30T16:57:38;15.60;99.90
27619;DHT22;15039;50.830;4.730;2022-09-30T17:00:05;15.60;99.90
27619;DHT22;15039;50.830;4.730;2022-09-30T17:02:31;15.60;99.90
27619;DHT22;15039;50.830;4.730;2022-09-30T17:04:56;15.50;99.90
27619;DHT22;15039;50.830;4.730;2022-09-30T17:07:22;15.40;99.90
27619;DHT22;15039;50.830;4.730;2022-09-30T17:09:48;15.20;99.90
27619;DHT22;15039;50.830;4.730;2022-09-30T17:12:14;15.20;99.90
27619;DHT22;15039;50.830;4.730;2022-09-30T17:14:40;15.20;99.90
27619;DHT22;15039;50.830;4.730;2022-09-30T17:17:08;15.20;99.90
27619;DHT22;15039;50.830;4.730;2022-09-30T17:19:34;15.20;99.90
27619;DHT22;15039;50.830;4.730;2022-09-30T17:22:01;15.20;99.90
27619;DHT22;15039;50.830;4.730;2022-09-30T17:24:27;15.20;99.90
27619;DHT22;15039;50.830;4.730;2022-09-30T17:26:53;15.10;99.90
27619;DHT22;15039;50.830;4.730;2022-09-30T17:29:18;15.10;99.90
27619;DHT22;15039;50.830;4.730;2022-09-30T17:31:44;15.00;99.90
27619;DHT22;15039;50.830;4.730;2022-09-30T17:34:10;15.00;99.90
27619;DHT22;15039;50.830;4.730;2022-09-30T17:36:35;14.90;99.90
27619;DHT22;15039;50.830;4.730;2022-09-30T17:39:01;14.80;99.90
27619;DHT22;15039;50.830;4.730;2022-09-30T17:41:28;14.80;99.90
27619;DHT22;15039;50.830;4.730;2022-09-30T17:44:12;14.80;99.90
27619;DHT22;15039;50.830;4.730;2022-09-30T17:46:42;14.70;99.90
27619;DHT22;15039;50.830;4.730;2022-09-30T17:49:10;14.70;99.90
27619;DHT22;15039;50.830;4.730;2022-09-30T17:51:36;14.60;99.90
27619;DHT22;15039;50.830;4.730;2022-09-30T17:54:06;14.60;99.90
27619;DHT22;15039;50.830;4.730;2022-09-30T17:56:32;14.50;99.90
27619;DHT22;15039;50.830;4.730;2022-09-30T17:58:58;14.50;99.90
27619;DHT22;15039;50.830;4.730;2022-09-30T18:01:26;14.50;99.90
27619;DHT22;15039;50.830;4.730;2022-09-30T18:03:57;14.40;99.90
27619;DHT22;15039;50.830;4.730;2022-09-30T18:06:23;14.40;99.90
27619;DHT22;15039;50.830;4.730;2022-09-30T18:08:49;14.20;99.90
27619;DHT22;15039;50.830;4.730;2022-09-30T18:11:23;14.20;99.90
27619;DHT22;15039;50.830;4.730;2022-09-30T18:13:54;14.20;99.90
27619;DHT22;15039;50.830;4.730;2022-09-30T18:16:24;14.10;99.90
27619;DHT22;15039;50.830;4.730;2022-09-30T18:18:50;14.10;99.90
27619;DHT22;15039;50.830;4.730;2022-09-30T18:21:15;14.10;99.90
27619;DHT22;15039;50.830;4.730;2022-09-30T18:23:41;14.10;99.90
27619;DHT22;15039;50.830;4.730;2022-09-30T18:26:07;14.10;99.90
27619;DHT22;15039;50.830;4.730;2022-09-30T18:28:32;14.10;99.90
27619;DHT22;15039;50.830;4.730;2022-09-30T18:31:04;14.10;99.90
27619;DHT22;15039;50.830;4.730;2022-09-30T18:33:29;14.10;99.90
27619;DHT22;15039;50.830;4.730;2022-09-30T18:35:59;14.20;99.90
27619;DHT22;15039;50.830;4.730;2022-09-30T18:38:25;14.30;99.90
27619;DHT22;15039;50.830;4.730;2022-09-30T18:40:52;14.30;99.90
27619;DHT22;15039;50.830;4.730;2022-09-30T18:43:19;14.20;99.90
27619;DHT22;15039;50.830;4.730;2022-09-30T18:45:55;14.20;99.90
27619;DHT22;15039;50.830;4.730;2022-09-30T18:48:23;14.10;99.90
27619;DHT22;15039;50.830;4.730;2022-09-30T18:50:49;14.10;99.90
27619;DHT22;15039;50.830;4.730;2022-09-30T18:53:22;14.20;99.90
27619;DHT22;15039;50.830;4.730;2022-09-30T18:55:47;14.20;99.90
27619;DHT22;15039;50.830;4.730;2022-09-30T18:58:14;14.20;99.90
27619;DHT22;15039;50.830;4.730;2022-09-30T19:00:42;14.10;99.90
27619;DHT22;15039;50.830;4.730;2022-09-30T19:03:09;14.10;99.90
27619;DHT22;15039;50.830;4.730;2022-09-30T19:05:39;14.10;99.90
27619;DHT22;15039;50.830;4.730;2022-09-30T19:08:06;14.10;99.90
27619;DHT22;15039;50.830;4.730;2022-09-30T19:10:37;14.00;99.90
27619;DHT22;15039;50.830;4.730;2022-09-30T19:13:04;14.00;99.90
27619;DHT22;15039;50.830;4.730;2022-09-30T19:15:29;14.00;99.90
27619;DHT22;15039;50.830;4.730;2022-09-30T19:17:56;14.00;99.90
27619;DHT22;15039;50.830;4.730;2022-09-30T19:20:23;14.10;99.90
27619;DHT22;15039;50.830;4.730;2022-09-30T19:22:48;14.10;99.90
27619;DHT22;15039;50.830;4.730;2022-09-30T19:25:16;14.10;99.90
27619;DHT22;15039;50.830;4.730;2022-09-30T19:27:42;14.10;99.90
27619;DHT22;15039;50.830;4.730;2022-09-30T19:30:10;14.10;99.90
27619;DHT22;15039;50.830;4.730;2022-09-30T19:32:36;14.20;99.90
27619;DHT22;15039;50.830;4.730;2022-09-30T19:35:07;14.10;99.90
27619;DHT22;15039;50.830;4.730;2022-09-30T19:37:34;14.10;99.90
27619;DHT22;15039;50.830;4.730;2022-09-30T19:40:00;14.10;99.90
27619;DHT22;15039;50.830;4.730;2022-09-30T19:42:30;14.20;99.90
27619;DHT22;15039;50.830;4.730;2022-09-30T19:44:56;14.10;99.90